createdAt,value
2023-02-20T00:00:19.568Z,95596
2023-02-20T00:03:44.790Z,95603
2023-02-20T00:07:09.999Z,95594
2023-02-20T00:10:35.246Z,95591
2023-02-20T00:14:00.454Z,95587
2023-02-20T00:17:25.726Z,95593
2023-02-20T00:20:50.904Z,95596
2023-02-20T00:24:16.121Z,95594
2023-02-20T00:27:41.338Z,95601
2023-02-20T00:31:06.608Z,95592
2023-02-20T00:34:31.724Z,95596
2023-02-20T00:37:56.894Z,95581
2023-02-20T00:41:22.062Z,95592
2023-02-20T00:44:47.259Z,95584
2023-02-20T00:48:12.460Z,95588
2023-02-20T00:51:37.645Z,95592
2023-02-20T00:55:02.845Z,95583
2023-02-20T00:58:28.046Z,95586
2023-02-20T01:01:53.251Z,95589
2023-02-20T01:05:18.392Z,95584
2023-02-20T01:08:43.617Z,95584
2023-02-20T01:12:08.774Z,95577
2023-02-20T01:15:33.922Z,95564
2023-02-20T01:18:59.070Z,95570
2023-02-20T01:22:24.270Z,95576
2023-02-20T01:25:49.455Z,95592
2023-02-20T01:29:14.713Z,95600
2023-02-20T01:32:39.879Z,95594
2023-02-20T01:36:05.071Z,95585
2023-02-20T01:39:30.248Z,95584
2023-02-20T01:42:55.409Z,95577
2023-02-20T01:46:20.612Z,95575
2023-02-20T01:49:45.747Z,95584
2023-02-20T01:53:10.897Z,95581
2023-02-20T01:56:36.071Z,95571
2023-02-20T02:00:01.196Z,95566
2023-02-20T02:03:26.341Z,95568
2023-02-20T02:06:51.503Z,95557
2023-02-20T02:10:16.644Z,95554
2023-02-20T02:13:41.785Z,95557
2023-02-20T02:17:06.946Z,95552
2023-02-20T02:20:32.123Z,95546
2023-02-20T02:23:57.246Z,95545
2023-02-20T02:27:22.453Z,95552
2023-02-20T02:30:47.655Z,95555
2023-02-20T02:34:12.749Z,95540
2023-02-20T02:37:37.942Z,95532
2023-02-20T02:41:03.107Z,95529
2023-02-20T02:44:28.220Z,95520
2023-02-20T02:47:53.375Z,95510
2023-02-20T02:51:18.540Z,95504
2023-02-20T02:54:43.692Z,95505
2023-02-20T02:58:08.894Z,95508
2023-02-20T03:01:34.025Z,95514
2023-02-20T03:04:59.192Z,95512
2023-02-20T03:08:24.338Z,95504
2023-02-20T03:11:49.491Z,95509
2023-02-20T03:15:14.700Z,95502
2023-02-20T03:18:39.829Z,95494
2023-02-20T03:22:04.979Z,95496
2023-02-20T03:25:30.122Z,95503
2023-02-20T03:28:55.274Z,95497
2023-02-20T03:32:20.520Z,95499
2023-02-20T03:35:45.577Z,95503
2023-02-20T03:39:10.724Z,95496
2023-02-20T03:42:35.886Z,95492
2023-02-20T03:46:01.052Z,95486
2023-02-20T03:49:26.203Z,95490
2023-02-20T03:52:51.339Z,95497
2023-02-20T03:56:16.501Z,95499
2023-02-20T03:59:41.652Z,95500
2023-02-20T04:03:06.793Z,95512
2023-02-20T04:06:31.972Z,95504
2023-02-20T04:09:57.142Z,95510
2023-02-20T04:13:22.289Z,95509
2023-02-20T04:16:47.495Z,95506
2023-02-20T04:20:12.615Z,95506
2023-02-20T04:23:37.804Z,95510
2023-02-20T04:27:02.913Z,95510
2023-02-20T04:30:28.122Z,95519
2023-02-20T04:33:53.194Z,95521
2023-02-20T04:37:19.105Z,95520
2023-02-20T04:40:44.303Z,95516
2023-02-20T04:44:09.426Z,95526
2023-02-20T04:47:34.597Z,95531
2023-02-20T04:51:02.018Z,95518
2023-02-20T04:54:24.962Z,95516
2023-02-20T04:57:50.152Z,95507
2023-02-20T05:01:15.345Z,95508
2023-02-20T05:04:40.495Z,95503
2023-02-20T05:08:05.645Z,95511
2023-02-20T05:11:30.824Z,95516
2023-02-20T05:14:56.009Z,95523
2023-02-20T05:18:21.172Z,95530
2023-02-20T05:21:46.365Z,95532
2023-02-20T05:25:11.540Z,95543
2023-02-20T05:28:36.707Z,95546
2023-02-20T05:32:01.947Z,95552
2023-02-20T05:35:27.059Z,95534
2023-02-20T05:38:52.218Z,95532
2023-02-20T05:42:17.406Z,95533
2023-02-20T05:45:42.561Z,95542
2023-02-20T05:49:07.778Z,95544
2023-02-20T05:52:32.995Z,95530
2023-02-20T05:55:58.185Z,95526
2023-02-20T05:59:23.424Z,95512
2023-02-20T06:02:48.585Z,95496
2023-02-20T06:06:13.982Z,95491
2023-02-20T06:09:38.948Z,95493
2023-02-20T06:13:04.147Z,95488
2023-02-20T06:16:29.359Z,95491
2023-02-20T06:19:54.522Z,95482
2023-02-20T06:23:19.803Z,95469
2023-02-20T06:26:44.925Z,95476
2023-02-20T06:30:10.114Z,95470
2023-02-20T06:33:35.308Z,95498
2023-02-20T06:37:00.469Z,95495
2023-02-20T06:40:25.886Z,95493
2023-02-20T06:43:51.072Z,95498
2023-02-20T06:47:16.254Z,95492
2023-02-20T06:50:41.476Z,95485
2023-02-20T06:54:06.656Z,95496
2023-02-20T06:57:31.850Z,95489
2023-02-20T07:00:57.078Z,95494
2023-02-20T07:04:22.239Z,95500
2023-02-20T07:07:47.445Z,95503
2023-02-20T07:11:12.650Z,95501
2023-02-20T07:14:37.850Z,95503
2023-02-20T07:18:03.001Z,95501
2023-02-20T07:21:28.185Z,95496
2023-02-20T07:24:54.101Z,95484
2023-02-20T07:28:19.286Z,95476
2023-02-20T07:31:44.585Z,95478
2023-02-20T07:35:09.737Z,95485
2023-02-20T07:38:34.906Z,95488
2023-02-20T07:42:00.142Z,95483
2023-02-20T07:45:25.387Z,95484
2023-02-20T07:48:50.616Z,95473
2023-02-20T07:52:15.747Z,95467
2023-02-20T07:55:40.971Z,95476
2023-02-20T07:59:07.024Z,95483
2023-02-20T08:02:32.280Z,95483
2023-02-20T08:05:57.514Z,95484
2023-02-20T08:09:22.715Z,95478
2023-02-20T08:12:47.950Z,95489
2023-02-20T08:16:13.493Z,95469
2023-02-20T08:19:38.437Z,95451
2023-02-20T08:23:03.667Z,95445
2023-02-20T08:26:28.906Z,95456
2023-02-20T08:29:54.146Z,95450
2023-02-20T08:33:19.437Z,95456
2023-02-20T08:36:44.698Z,95448
2023-02-20T08:40:09.917Z,95452
2023-02-20T08:43:35.106Z,95446
2023-02-20T08:47:00.363Z,95445
2023-02-20T08:50:25.660Z,95437
2023-02-20T08:53:50.870Z,95435
2023-02-20T08:57:16.113Z,95431
2023-02-20T09:00:41.400Z,95438
2023-02-20T09:04:06.596Z,95423
2023-02-20T09:07:31.879Z,95422
2023-02-20T09:10:57.130Z,95422
2023-02-20T09:14:22.449Z,95414
2023-02-20T09:17:47.695Z,95410
2023-02-20T09:21:12.983Z,95399
2023-02-20T09:24:38.394Z,95401
2023-02-20T09:28:03.622Z,95403
2023-02-20T09:31:28.984Z,95412
2023-02-20T09:34:54.122Z,95413
2023-02-20T09:38:19.322Z,95407
2023-02-20T09:41:44.543Z,95416
2023-02-20T09:45:09.751Z,95404
2023-02-20T09:48:35.013Z,95398
2023-02-20T09:52:00.234Z,95396
2023-02-20T09:55:25.416Z,95392
2023-02-20T09:58:50.617Z,95388
2023-02-20T10:02:15.917Z,95387
2023-02-20T10:05:41.084Z,95380
2023-02-20T10:09:06.297Z,95370
2023-02-20T10:12:31.563Z,95368
2023-02-20T10:15:56.832Z,95366
2023-02-20T10:19:21.973Z,95373
2023-02-20T10:22:47.288Z,95378
2023-02-20T10:26:12.821Z,95352
2023-02-20T10:29:37.765Z,95340
2023-02-20T10:33:03.002Z,95333
2023-02-20T10:36:28.266Z,95329
2023-02-20T10:39:53.508Z,95325
2023-02-20T10:43:18.679Z,95341
2023-02-20T10:46:49.125Z,95316
2023-02-20T10:50:09.119Z,95327
2023-02-20T10:53:34.364Z,95320
2023-02-20T10:56:59.623Z,95306
2023-02-20T11:00:25.642Z,95284
2023-02-20T11:03:50.924Z,95285
2023-02-20T11:07:16.225Z,95275
2023-02-20T11:10:41.489Z,95270
2023-02-20T11:14:06.758Z,95263
2023-02-20T11:17:32.226Z,95263
2023-02-20T11:20:57.508Z,95261
2023-02-20T11:24:22.757Z,95259
2023-02-20T11:27:48.027Z,95244
2023-02-20T11:31:13.420Z,95233
2023-02-20T11:34:38.654Z,95239
2023-02-20T11:38:03.991Z,95234
2023-02-20T11:41:29.264Z,95222
2023-02-20T11:44:54.566Z,95224
2023-02-20T11:48:19.831Z,95234
2023-02-20T11:51:45.082Z,95229
2023-02-20T11:55:10.342Z,95217
2023-02-20T11:58:35.636Z,95217
2023-02-20T12:02:01.361Z,95242
2023-02-20T12:05:26.375Z,95246
2023-02-20T12:08:51.611Z,95254
2023-02-20T12:12:16.964Z,95251
2023-02-20T12:15:42.382Z,95233
2023-02-20T12:19:07.746Z,95231
2023-02-20T12:22:33.107Z,95228
2023-02-20T12:25:58.430Z,95223
2023-02-20T12:29:23.881Z,95209
2023-02-20T12:32:49.299Z,95206
2023-02-20T12:36:14.900Z,95205
2023-02-20T12:39:39.966Z,95202
2023-02-20T12:43:05.157Z,95201
2023-02-20T12:46:30.425Z,95181
2023-02-20T12:49:55.731Z,95179
2023-02-20T12:53:21.034Z,95179
2023-02-20T12:56:46.305Z,95178
2023-02-20T13:00:11.536Z,95160
2023-02-20T13:03:36.801Z,95154
2023-02-20T13:07:02.031Z,95139
2023-02-20T13:10:27.317Z,95141
2023-02-20T13:13:52.587Z,95122
2023-02-20T13:17:17.846Z,95127
2023-02-20T13:20:44.694Z,95124
2023-02-20T13:24:08.365Z,95127
2023-02-20T13:27:33.581Z,95129
2023-02-20T13:30:58.862Z,95135
2023-02-20T13:34:24.075Z,95124
2023-02-20T13:37:49.396Z,95094
2023-02-20T13:41:14.680Z,95120
2023-02-20T13:44:39.954Z,95116
2023-02-20T13:48:06.470Z,95118
2023-02-20T13:51:30.443Z,95127
2023-02-20T13:54:55.717Z,95129
2023-02-20T13:58:23.088Z,95126
2023-02-20T14:01:46.239Z,95126
2023-02-20T14:05:11.566Z,95106
2023-02-20T14:08:36.817Z,95098
2023-02-20T14:12:02.067Z,95098
2023-02-20T14:15:27.355Z,95099
2023-02-20T14:18:52.626Z,95098
2023-02-20T14:22:17.908Z,95109
2023-02-20T14:25:55.316Z,95098
2023-02-20T14:29:08.469Z,95097
2023-02-20T15:06:06.844Z,95089
2023-02-20T15:09:32.064Z,95098
2023-02-20T15:12:57.293Z,95106
2023-02-20T15:16:22.637Z,95110
2023-02-20T15:19:47.819Z,95114
2023-02-20T15:23:15.393Z,95105
2023-02-20T15:26:38.324Z,95117
2023-02-20T15:30:03.702Z,95117
2023-02-20T15:33:28.870Z,95108
2023-02-20T15:36:54.276Z,95125
2023-02-20T15:40:19.586Z,95109
2023-02-20T15:43:48.414Z,95103
2023-02-20T15:47:10.804Z,95113
2023-02-20T15:50:36.061Z,95117
2023-02-20T15:54:01.329Z,95114
2023-02-20T15:57:26.624Z,95117
2023-02-20T16:00:51.886Z,95107
2023-02-20T16:04:17.115Z,95103
2023-02-20T16:07:42.467Z,95102
2023-02-20T16:11:07.651Z,95106
2023-02-20T16:14:32.900Z,95100
2023-02-20T16:17:58.167Z,95092
2023-02-20T16:21:23.544Z,95080
2023-02-20T16:24:48.694Z,95079
2023-02-20T16:28:13.923Z,95071
2023-02-20T16:31:39.326Z,95080
2023-02-20T16:35:04.490Z,95076
2023-02-20T16:38:29.811Z,95076
2023-02-20T16:41:55.049Z,95075
2023-02-20T16:45:20.287Z,95066
2023-02-20T16:48:45.543Z,95066
2023-02-20T16:52:10.802Z,95077
2023-02-20T16:55:36.073Z,95081
2023-02-20T16:59:01.302Z,95091
2023-02-20T17:02:26.546Z,95104
2023-02-20T17:05:51.851Z,95111
2023-02-20T17:09:17.077Z,95109
2023-02-20T17:12:42.359Z,95122
2023-02-20T17:16:07.646Z,95119
2023-02-20T17:19:32.934Z,95125
2023-02-20T17:23:04.826Z,95122
2023-02-20T17:26:23.362Z,95118
2023-02-20T17:29:48.620Z,95126
2023-02-20T17:33:13.882Z,95140
2023-02-20T17:36:39.111Z,95151
2023-02-20T17:40:04.381Z,95149
2023-02-20T17:43:29.610Z,95150
2023-02-20T17:46:54.993Z,95146
2023-02-20T17:50:20.208Z,95141
2023-02-20T17:53:45.465Z,95146
2023-02-20T17:57:10.799Z,95134
2023-02-20T18:00:35.986Z,95137
2023-02-20T18:04:01.245Z,95130
2023-02-20T18:07:26.511Z,95123
2023-02-20T18:10:51.719Z,95127
2023-02-20T18:14:18.831Z,95130
2023-02-20T18:17:42.335Z,95133
2023-02-20T18:21:07.620Z,95134
2023-02-20T18:24:32.875Z,95132
2023-02-20T18:27:58.113Z,95143
2023-02-20T18:31:23.450Z,95143
2023-02-20T18:34:48.598Z,95140
2023-02-20T18:38:13.845Z,95147
2023-02-20T18:41:39.088Z,95146
2023-02-20T18:45:04.313Z,95142
2023-02-20T18:48:29.608Z,95140
2023-02-20T18:51:54.832Z,95138
2023-02-20T18:55:20.094Z,95135
2023-02-20T18:58:45.336Z,95119
2023-02-20T19:02:10.652Z,95123
2023-02-20T19:05:35.897Z,95120
2023-02-20T19:09:01.121Z,95123
2023-02-20T19:12:26.373Z,95109
2023-02-20T19:15:51.623Z,95111
2023-02-20T19:19:23.416Z,95109
2023-02-20T19:22:42.159Z,95113
2023-02-20T19:26:07.415Z,95117
2023-02-20T19:29:32.656Z,95116
2023-02-20T19:32:57.913Z,95121
2023-02-20T19:36:23.190Z,95120
2023-02-20T19:39:48.482Z,95124
2023-02-20T19:43:13.738Z,95123
2023-02-20T19:46:38.967Z,95123
2023-02-20T19:50:04.198Z,95117
2023-02-20T19:53:29.461Z,95122
2023-02-20T19:56:54.708Z,95123
2023-02-20T20:00:19.936Z,95125
2023-02-20T20:03:45.246Z,95125
2023-02-20T20:07:10.464Z,95134
2023-02-20T20:10:35.707Z,95140
2023-02-20T20:14:01.040Z,95127
2023-02-20T20:17:26.235Z,95132
2023-02-20T20:20:51.500Z,95132
2023-02-20T20:24:16.742Z,95133
2023-02-20T20:27:42.195Z,95142
2023-02-20T20:31:07.252Z,95136
2023-02-20T20:34:32.476Z,95129
2023-02-20T20:37:57.714Z,95124
2023-02-20T20:41:23.746Z,95119
2023-02-20T20:44:48.203Z,95117
2023-02-20T20:48:13.468Z,95116
2023-02-20T20:51:38.706Z,95115
2023-02-20T20:55:03.969Z,95108
2023-02-20T20:58:29.207Z,95115
2023-02-20T21:01:54.516Z,95102
2023-02-20T21:05:19.705Z,95103
2023-02-20T21:08:44.914Z,95097
2023-02-20T21:12:10.152Z,95104
2023-02-20T21:15:35.513Z,95101
2023-02-20T21:19:00.648Z,95105
2023-02-20T21:22:25.903Z,95112
2023-02-20T21:25:51.138Z,95113
2023-02-20T21:29:16.382Z,95106
2023-02-20T21:32:41.626Z,95119
2023-02-20T21:36:06.891Z,95123
2023-02-20T21:39:32.130Z,95110
2023-02-20T21:42:57.369Z,95114
2023-02-20T21:46:22.952Z,95105
2023-02-20T21:49:48.158Z,95112
2023-02-20T21:53:13.410Z,95113
2023-02-20T21:56:38.656Z,95118
2023-02-20T22:00:03.891Z,95124
2023-02-20T22:03:29.136Z,95120
2023-02-20T22:06:54.391Z,95120
2023-02-20T22:10:19.658Z,95116
2023-02-20T22:13:44.966Z,95111
2023-02-20T22:17:10.170Z,95115
2023-02-20T22:20:35.425Z,95105
2023-02-20T22:24:00.647Z,95095
2023-02-20T22:27:25.911Z,95081
2023-02-20T22:30:53.234Z,95085
2023-02-20T22:34:16.403Z,95084
2023-02-20T22:37:41.697Z,95079
2023-02-20T22:41:06.999Z,95078
2023-02-20T22:44:32.183Z,95083
2023-02-20T22:47:57.453Z,95095
2023-02-20T22:51:22.664Z,95097
2023-02-20T22:54:59.110Z,95094
2023-02-20T22:58:13.170Z,95091
2023-02-20T23:01:38.451Z,95096
2023-02-20T23:05:03.738Z,95093
2023-02-20T23:08:29.125Z,95088
2023-02-20T23:11:54.390Z,95092
2023-02-20T23:15:19.634Z,95095
2023-02-20T23:18:44.879Z,95094
2023-02-20T23:22:10.130Z,95095
2023-02-20T23:25:35.373Z,95086
2023-02-20T23:29:00.621Z,95090
2023-02-20T23:32:25.868Z,95104
2023-02-20T23:35:51.093Z,95116
2023-02-20T23:39:16.374Z,95117
2023-02-20T23:42:41.633Z,95120
2023-02-20T23:46:07.320Z,95121
2023-02-20T23:49:32.429Z,95121
2023-02-20T23:52:57.675Z,95121
2023-02-20T23:56:22.967Z,95126
2023-02-20T23:59:48.134Z,95123
